createdAt,value
2024-01-16T00:00:36.391Z,637.00
2024-01-16T00:01:36.360Z,638.00
2024-01-16T00:02:36.413Z,639.00
2024-01-16T00:03:36.419Z,640.00
2024-01-16T00:04:36.375Z,638.00
2024-01-16T00:05:36.453Z,638.00
2024-01-16T00:06:36.416Z,639.00
2024-01-16T00:07:36.413Z,640.00
2024-01-16T00:08:36.476Z,638.00
2024-01-16T00:09:36.440Z,637.00
2024-01-16T00:10:36.433Z,637.00
2024-01-16T00:11:36.509Z,638.00
2024-01-16T00:12:36.514Z,635.00
2024-01-16T00:13:36.525Z,635.00
2024-01-16T00:14:36.678Z,635.00
2024-01-16T00:15:36.605Z,635.00
2024-01-16T00:16:36.604Z,639.00
2024-01-16T00:17:36.777Z,641.00
2024-01-16T00:18:36.733Z,641.00
2024-01-16T00:19:36.660Z,642.00
2024-01-16T00:20:36.720Z,641.00
2024-01-16T00:21:36.657Z,643.00
2024-01-16T00:22:36.684Z,644.00
2024-01-16T00:23:36.753Z,644.00
2024-01-16T00:24:36.716Z,643.00
2024-01-16T00:25:36.722Z,641.00
2024-01-16T00:26:36.779Z,641.00
2024-01-16T00:27:36.785Z,640.00
2024-01-16T00:28:36.787Z,640.00
2024-01-16T00:29:36.833Z,641.00
2024-01-16T00:30:36.774Z,640.00
2024-01-16T00:31:36.810Z,640.00
2024-01-16T00:32:36.831Z,638.00
2024-01-16T00:33:36.893Z,638.00
2024-01-16T00:34:36.841Z,636.00
2024-01-16T00:35:36.821Z,634.00
2024-01-16T00:36:36.811Z,634.00
2024-01-16T00:37:36.829Z,637.00
2024-01-16T00:38:36.873Z,637.00
2024-01-16T00:39:36.847Z,638.00
2024-01-16T00:40:36.854Z,636.00
2024-01-16T00:41:37.000Z,636.00
2024-01-16T00:42:36.881Z,637.00
2024-01-16T00:43:36.905Z,635.00
2024-01-16T00:44:36.940Z,633.00
2024-01-16T00:45:36.919Z,632.00
2024-01-16T00:46:36.938Z,633.00
2024-01-16T00:47:37.077Z,633.00
2024-01-16T00:48:37.019Z,632.00
2024-01-16T00:49:37.028Z,632.00
2024-01-16T00:50:36.989Z,633.00
2024-01-16T00:51:36.980Z,633.00
2024-01-16T00:52:37.001Z,635.00
2024-01-16T00:53:37.074Z,634.00
2024-01-16T00:54:37.020Z,633.00
2024-01-16T00:55:37.023Z,632.00
2024-01-16T00:56:37.047Z,630.00
2024-01-16T00:57:37.033Z,630.00
2024-01-16T00:58:37.048Z,629.00
2024-01-16T00:59:37.054Z,630.00
2024-01-16T01:00:37.032Z,633.00
2024-01-16T01:01:37.092Z,633.00
2024-01-16T01:02:37.122Z,632.00
2024-01-16T01:03:37.101Z,633.00
2024-01-16T01:04:37.064Z,634.00
2024-01-16T01:05:37.247Z,637.00
2024-01-16T01:06:37.064Z,634.00
2024-01-16T01:07:37.043Z,633.00
2024-01-16T01:08:37.098Z,634.00
2024-01-16T01:09:37.065Z,635.00
2024-01-16T01:10:37.087Z,632.00
2024-01-16T01:11:37.078Z,630.00
2024-01-16T01:12:37.063Z,633.00
2024-01-16T01:13:37.075Z,632.00
2024-01-16T01:14:37.182Z,629.00
2024-01-16T01:15:37.077Z,629.00
2024-01-16T01:16:37.080Z,626.00
2024-01-16T01:17:37.173Z,626.00
2024-01-16T01:18:37.177Z,625.00
2024-01-16T01:19:37.137Z,626.00
2024-01-16T01:20:37.152Z,625.00
2024-01-16T01:21:37.132Z,627.00
2024-01-16T01:22:37.128Z,633.00
2024-01-16T01:23:37.182Z,629.00
2024-01-16T01:24:37.164Z,628.00
2024-01-16T01:25:37.160Z,624.00
2024-01-16T01:26:37.229Z,623.00
2024-01-16T01:27:37.172Z,622.00
2024-01-16T01:28:37.182Z,621.00
2024-01-16T01:29:37.207Z,619.00
2024-01-16T01:30:37.242Z,620.00
2024-01-16T01:31:37.177Z,621.00
2024-01-16T01:32:37.447Z,621.00
2024-01-16T01:33:37.252Z,622.00
2024-01-16T01:34:37.209Z,621.00
2024-01-16T01:35:37.257Z,620.00
2024-01-16T01:36:37.212Z,620.00
2024-01-16T01:37:37.223Z,620.00
2024-01-16T01:38:37.269Z,622.00
2024-01-16T01:39:37.229Z,620.00
2024-01-16T01:40:37.242Z,620.00
2024-01-16T01:41:37.276Z,621.00
2024-01-16T01:42:37.253Z,623.00
2024-01-16T01:43:37.284Z,623.00
2024-01-16T01:44:37.378Z,621.00
2024-01-16T01:45:37.302Z,622.00
2024-01-16T01:46:37.305Z,620.00
2024-01-16T01:47:37.433Z,621.00
2024-01-16T01:48:37.381Z,619.00
2024-01-16T01:49:37.370Z,621.00
2024-01-16T01:50:37.363Z,618.00
2024-01-16T01:51:37.335Z,616.00
2024-01-16T01:52:37.358Z,617.00
2024-01-16T01:53:37.382Z,619.00
2024-01-16T01:54:37.345Z,620.00
2024-01-16T01:55:37.364Z,618.00
2024-01-16T01:56:37.416Z,619.00
2024-01-16T01:57:37.377Z,621.00
2024-01-16T01:58:37.370Z,623.00
2024-01-16T01:59:37.458Z,622.00
2024-01-16T02:00:37.393Z,621.00
2024-01-16T02:01:37.395Z,618.00
2024-01-16T02:02:37.446Z,618.00
2024-01-16T02:03:37.478Z,618.00
2024-01-16T02:04:37.439Z,617.00
2024-01-16T02:05:37.460Z,616.00
2024-01-16T02:06:37.422Z,617.00
2024-01-16T02:07:37.448Z,613.00
2024-01-16T02:08:37.487Z,613.00
2024-01-16T02:09:37.463Z,613.00
2024-01-16T02:10:37.455Z,612.00
2024-01-16T02:11:37.526Z,612.00
2024-01-16T02:12:37.473Z,611.00
2024-01-16T02:13:37.481Z,609.00
2024-01-16T02:14:37.528Z,608.00
2024-01-16T02:15:37.498Z,609.00
2024-01-16T02:16:37.489Z,609.00
2024-01-16T02:17:37.677Z,607.00
2024-01-16T02:18:37.541Z,611.00
2024-01-16T02:19:37.605Z,611.00
2024-01-16T02:20:37.559Z,611.00
2024-01-16T02:21:38.429Z,613.00
2024-01-16T02:22:37.508Z,614.00
2024-01-16T02:23:37.673Z,617.00
2024-01-16T02:24:37.539Z,616.00
2024-01-16T02:25:37.539Z,618.00
2024-01-16T02:26:37.583Z,616.00
2024-01-16T02:27:37.566Z,615.00
2024-01-16T02:28:37.570Z,612.00
2024-01-16T02:29:37.607Z,614.00
2024-01-16T02:30:37.636Z,614.00
2024-01-16T02:31:37.592Z,614.00
2024-01-16T02:32:37.659Z,612.00
2024-01-16T02:33:37.627Z,611.00
2024-01-16T02:34:37.594Z,608.00
2024-01-16T02:35:37.632Z,607.00
2024-01-16T02:36:37.600Z,607.00
2024-01-16T02:37:37.631Z,607.00
2024-01-16T02:38:37.673Z,607.00
2024-01-16T02:39:37.630Z,609.00
2024-01-16T02:40:37.674Z,609.00
2024-01-16T02:41:37.733Z,612.00
2024-01-16T02:42:37.734Z,610.00
2024-01-16T02:43:37.780Z,611.00
2024-01-16T02:44:37.823Z,611.00
2024-01-16T02:45:37.830Z,609.00
2024-01-16T02:46:37.862Z,605.00
2024-01-16T02:47:37.985Z,604.00
2024-01-16T02:48:37.917Z,603.00
2024-01-16T02:49:37.965Z,600.00
2024-01-16T02:50:37.914Z,601.00
2024-01-16T02:51:37.909Z,601.00
2024-01-16T02:52:37.906Z,603.00
2024-01-16T02:53:37.952Z,603.00
2024-01-16T02:54:37.932Z,601.00
2024-01-16T02:55:37.923Z,603.00
2024-01-16T02:56:37.957Z,602.00
2024-01-16T02:57:37.918Z,601.00
2024-01-16T02:58:37.956Z,605.00
2024-01-16T02:59:38.004Z,608.00
2024-01-16T03:00:37.956Z,610.00
2024-01-16T03:01:37.952Z,612.00
2024-01-16T03:02:38.072Z,614.00
2024-01-16T03:03:38.442Z,613.00
2024-01-16T03:04:37.967Z,615.00
2024-01-16T03:05:38.034Z,615.00
2024-01-16T03:06:38.068Z,614.00
2024-01-16T03:07:37.992Z,610.00
2024-01-16T03:08:39.193Z,609.00
2024-01-16T03:09:38.545Z,605.00
2024-01-16T03:10:38.014Z,605.00
2024-01-16T03:11:38.071Z,599.00
2024-01-16T03:12:38.003Z,600.00
2024-01-16T03:13:37.995Z,603.00
2024-01-16T03:14:38.102Z,605.00
2024-01-16T03:15:38.019Z,604.00
2024-01-16T03:16:38.003Z,605.00
2024-01-16T03:17:38.044Z,608.00
2024-01-16T03:18:38.145Z,608.00
2024-01-16T03:19:38.012Z,611.00
2024-01-16T03:20:38.059Z,613.00
2024-01-16T03:21:38.016Z,612.00
2024-01-16T03:22:38.028Z,608.00
2024-01-16T03:23:38.140Z,609.00
2024-01-16T03:24:38.029Z,608.00
2024-01-16T03:25:38.019Z,607.00
2024-01-16T03:26:38.064Z,604.00
2024-01-16T03:27:38.039Z,604.00
2024-01-16T03:28:38.078Z,601.00
2024-01-16T03:29:38.083Z,602.00
2024-01-16T03:30:38.143Z,606.00
2024-01-16T03:31:38.145Z,606.00
2024-01-16T03:32:38.137Z,609.00
2024-01-16T03:33:38.149Z,609.00
2024-01-16T03:34:38.125Z,607.00
2024-01-16T03:35:38.122Z,608.00
2024-01-16T03:36:38.098Z,604.00
2024-01-16T03:37:38.098Z,608.00
2024-01-16T03:38:38.185Z,601.00
2024-01-16T03:39:38.161Z,599.00
2024-01-16T03:40:38.202Z,598.00
2024-01-16T03:41:38.260Z,599.00
2024-01-16T03:42:38.257Z,599.00
2024-01-16T03:43:38.322Z,597.00
2024-01-16T03:44:38.388Z,597.00
2024-01-16T03:45:38.366Z,599.00
2024-01-16T03:46:38.401Z,602.00
2024-01-16T03:47:38.468Z,604.00
2024-01-16T03:48:38.510Z,602.00
2024-01-16T03:49:38.456Z,602.00
2024-01-16T03:50:38.432Z,603.00
2024-01-16T03:51:38.405Z,606.00
2024-01-16T03:52:38.397Z,603.00
2024-01-16T03:53:38.419Z,602.00
2024-01-16T03:54:38.426Z,598.00
2024-01-16T03:55:38.418Z,597.00
2024-01-16T03:56:38.458Z,596.00
2024-01-16T03:57:38.416Z,594.00
2024-01-16T03:58:38.438Z,595.00
2024-01-16T03:59:38.479Z,592.00
2024-01-16T04:00:38.517Z,593.00
2024-01-16T04:01:38.568Z,593.00
2024-01-16T04:02:38.473Z,592.00
2024-01-16T04:03:38.534Z,592.00
2024-01-16T04:04:38.461Z,593.00
2024-01-16T04:05:38.526Z,595.00
2024-01-16T04:06:38.504Z,595.00
2024-01-16T04:07:38.467Z,595.00
2024-01-16T04:08:38.501Z,596.00
2024-01-16T04:09:38.483Z,598.00
2024-01-16T04:10:38.491Z,596.00
2024-01-16T04:11:38.572Z,596.00
2024-01-16T04:12:38.515Z,597.00
2024-01-16T04:13:38.578Z,597.00
2024-01-16T04:14:38.568Z,593.00
2024-01-16T04:15:38.560Z,595.00
2024-01-16T04:16:38.590Z,594.00
2024-01-16T04:17:38.663Z,591.00
2024-01-16T04:18:38.768Z,593.00
2024-01-16T04:19:38.685Z,594.00
2024-01-16T04:20:38.678Z,594.00
2024-01-16T04:21:38.632Z,591.00
2024-01-16T04:22:38.643Z,589.00
2024-01-16T04:23:38.675Z,591.00
2024-01-16T04:24:38.695Z,591.00
2024-01-16T04:25:38.672Z,594.00
2024-01-16T04:26:46.110Z,598.00
2024-01-16T04:27:45.900Z,594.00
2024-01-16T04:28:45.918Z,595.00
2024-01-16T04:29:45.990Z,597.00
2024-01-16T04:30:45.971Z,598.00
2024-01-16T04:31:58.014Z,604.00
2024-01-16T04:32:58.142Z,599.00
2024-01-16T04:33:58.111Z,600.00
2024-01-16T04:34:58.032Z,600.00
2024-01-16T04:35:58.109Z,601.00
2024-01-16T04:36:58.025Z,600.00
2024-01-16T04:37:58.010Z,603.00
2024-01-16T04:39:00.114Z,602.00
2024-01-16T04:39:58.008Z,602.00
2024-01-16T04:40:58.012Z,602.00
2024-01-16T04:41:58.015Z,599.00
2024-01-16T04:42:58.001Z,600.00
2024-01-16T04:43:58.006Z,600.00
2024-01-16T04:44:57.998Z,599.00
2024-01-16T04:45:59.257Z,605.00
2024-01-16T04:46:57.986Z,604.00
2024-01-16T04:47:58.026Z,607.00
2024-01-16T04:48:58.142Z,608.00
2024-01-16T04:49:57.951Z,610.00
2024-01-16T04:50:58.000Z,607.00
2024-01-16T04:51:57.931Z,606.00
2024-01-16T04:52:57.931Z,605.00
2024-01-16T04:53:57.936Z,603.00
2024-01-16T04:54:57.935Z,602.00
2024-01-16T04:55:57.950Z,604.00
2024-01-16T04:56:57.930Z,603.00
2024-01-16T04:57:57.932Z,601.00
2024-01-16T04:58:57.917Z,600.00
2024-01-16T04:59:57.902Z,601.00
2024-01-16T05:00:57.940Z,602.00
2024-01-16T05:01:57.883Z,604.00
2024-01-16T05:02:57.976Z,603.00
2024-01-16T05:03:57.933Z,601.00
2024-01-16T05:04:57.868Z,598.00
2024-01-16T05:05:57.921Z,597.00
2024-01-16T05:06:57.823Z,597.00
2024-01-16T05:07:57.855Z,595.00
2024-01-16T05:08:57.955Z,596.00
2024-01-16T05:09:57.809Z,599.00
2024-01-16T05:10:57.805Z,599.00
2024-01-16T05:11:57.814Z,600.00
2024-01-16T05:12:57.819Z,599.00
2024-01-16T05:13:57.804Z,599.00
2024-01-16T05:14:57.866Z,597.00
2024-01-16T05:15:57.803Z,595.00
2024-01-16T05:16:57.806Z,594.00
2024-01-16T05:17:57.959Z,594.00
2024-01-16T05:18:57.847Z,594.00
2024-01-16T05:19:57.778Z,594.00
2024-01-16T05:21:00.363Z,595.00
2024-01-16T05:21:57.792Z,594.00
2024-01-16T05:22:57.780Z,592.00
2024-01-16T05:23:57.780Z,593.00
2024-01-16T05:24:57.775Z,592.00
2024-01-16T05:25:57.815Z,592.00
2024-01-16T05:26:57.800Z,592.00
2024-01-16T05:27:57.761Z,594.00
2024-01-16T05:28:57.755Z,595.00
2024-01-16T05:29:57.827Z,592.00
2024-01-16T05:30:57.896Z,592.00
2024-01-16T05:31:57.726Z,592.00
2024-01-16T05:32:57.773Z,593.00
2024-01-16T05:33:57.828Z,592.00
2024-01-16T05:34:57.698Z,592.00
2024-01-16T05:35:57.731Z,592.00
2024-01-16T05:36:57.693Z,594.00
2024-01-16T05:37:57.697Z,591.00
2024-01-16T05:38:57.740Z,589.00
2024-01-16T05:39:57.692Z,590.00
2024-01-16T05:40:57.692Z,591.00
2024-01-16T05:41:57.761Z,591.00
2024-01-16T05:42:57.680Z,588.00
2024-01-16T05:43:57.698Z,587.00
2024-01-16T05:44:57.734Z,587.00
2024-01-16T05:45:57.727Z,589.00
2024-01-16T05:46:57.684Z,591.00
2024-01-16T05:47:57.816Z,591.00
2024-01-16T05:48:57.866Z,592.00
2024-01-16T05:49:57.797Z,589.00
2024-01-16T05:50:57.759Z,590.00
2024-01-16T05:51:57.715Z,593.00
2024-01-16T05:52:57.709Z,594.00
2024-01-16T05:53:57.801Z,593.00
2024-01-16T05:54:57.776Z,592.00
2024-01-16T05:55:57.848Z,592.00
2024-01-16T05:56:57.940Z,590.00
2024-01-16T05:57:57.888Z,588.00
2024-01-16T05:58:57.920Z,588.00
2024-01-16T05:59:57.965Z,588.00
2024-01-16T06:00:58.021Z,587.00
2024-01-16T06:01:58.030Z,586.00
2024-01-16T06:02:58.095Z,583.00
2024-01-16T06:03:58.139Z,584.00
2024-01-16T06:04:58.147Z,586.00
2024-01-16T06:05:58.249Z,584.00
2024-01-16T06:06:58.306Z,582.00
2024-01-16T06:07:58.244Z,582.00
2024-01-16T06:08:58.284Z,581.00
2024-01-16T06:09:58.314Z,577.00
2024-01-16T06:10:58.366Z,576.00
2024-01-16T06:11:58.409Z,577.00
2024-01-16T06:12:58.429Z,580.00
2024-01-16T06:13:58.456Z,578.00
2024-01-16T06:14:58.460Z,581.00
2024-01-16T06:15:58.515Z,581.00
2024-01-16T06:16:58.426Z,580.00
2024-01-16T06:17:58.611Z,579.00
2024-01-16T06:18:58.513Z,578.00
2024-01-16T06:19:58.460Z,576.00
2024-01-16T06:20:58.466Z,575.00
2024-01-16T06:21:58.429Z,574.00
2024-01-16T06:22:58.437Z,578.00
2024-01-16T06:23:58.500Z,577.00
2024-01-16T06:24:58.468Z,575.00
2024-01-16T06:25:58.504Z,575.00
2024-01-16T06:26:58.459Z,575.00
2024-01-16T06:27:59.820Z,577.00
2024-01-16T06:28:58.693Z,579.00
2024-01-16T06:29:58.724Z,579.00
2024-01-16T06:30:58.713Z,580.00
2024-01-16T06:31:58.741Z,582.00
2024-01-16T06:32:58.974Z,581.00
2024-01-16T06:33:58.750Z,582.00
2024-01-16T06:34:58.704Z,581.00
2024-01-16T06:35:58.763Z,582.00
2024-01-16T06:36:58.712Z,604.00
2024-01-16T06:37:58.702Z,624.00
2024-01-16T06:38:58.701Z,626.00
2024-01-16T06:39:58.689Z,665.00
2024-01-16T06:40:58.676Z,647.00
2024-01-16T06:41:58.698Z,651.00
2024-01-16T06:42:58.680Z,656.00
2024-01-16T06:43:58.723Z,738.00
2024-01-16T06:44:58.722Z,731.00
2024-01-16T06:45:58.694Z,730.00
2024-01-16T06:46:58.683Z,736.00
2024-01-16T06:47:58.782Z,807.00
2024-01-16T06:48:58.762Z,813.00
2024-01-16T06:49:58.676Z,821.00
2024-01-16T06:50:58.690Z,857.00
2024-01-16T06:51:58.673Z,905.00
2024-01-16T06:52:58.665Z,961.00
2024-01-16T06:53:58.765Z,958.00
2024-01-16T06:54:58.666Z,964.00
2024-01-16T06:55:58.691Z,984.00
2024-01-16T06:56:58.658Z,1055.00
2024-01-16T06:57:58.621Z,1059.00
2024-01-16T06:58:58.661Z,1051.00
2024-01-16T06:59:58.694Z,1052.00
2024-01-16T07:00:58.736Z,1056.00
2024-01-16T07:01:58.597Z,1049.00
2024-01-16T07:02:58.591Z,1045.00
2024-01-16T07:03:58.578Z,1034.00
2024-01-16T07:05:00.658Z,1020.00
2024-01-16T07:05:58.738Z,1012.00
2024-01-16T07:06:58.515Z,1001.00
2024-01-16T07:07:58.524Z,993.00
2024-01-16T07:08:58.510Z,986.00
2024-01-16T07:09:58.487Z,976.00
2024-01-16T07:10:58.509Z,967.00
2024-01-16T07:11:58.500Z,959.00
2024-01-16T07:12:58.461Z,952.00
2024-01-16T07:13:58.576Z,946.00
2024-01-16T07:14:58.483Z,942.00
2024-01-16T07:15:58.418Z,936.00
2024-01-16T07:16:58.419Z,929.00
2024-01-16T07:17:58.462Z,925.00
2024-01-16T07:18:58.419Z,920.00
2024-01-16T07:19:58.386Z,919.00
2024-01-16T07:20:58.413Z,919.00
2024-01-16T07:21:58.371Z,914.00
2024-01-16T07:22:58.367Z,909.00
2024-01-16T07:23:58.409Z,903.00
2024-01-16T07:24:58.363Z,895.00
2024-01-16T07:25:58.367Z,891.00
2024-01-16T07:26:58.424Z,891.00
2024-01-16T07:27:58.376Z,884.00
2024-01-16T07:28:58.372Z,881.00
2024-01-16T07:29:58.366Z,878.00
2024-01-16T07:30:58.474Z,873.00
2024-01-16T07:31:58.357Z,868.00
2024-01-16T07:32:58.460Z,865.00
2024-01-16T07:33:58.408Z,861.00
2024-01-16T07:34:58.366Z,856.00
2024-01-16T07:35:58.424Z,855.00
2024-01-16T07:36:58.337Z,851.00
2024-01-16T07:37:58.344Z,850.00
2024-01-16T07:38:58.348Z,845.00
2024-01-16T07:39:58.685Z,840.00
2024-01-16T07:40:58.332Z,835.00
2024-01-16T07:41:58.359Z,833.00
2024-01-16T07:42:58.328Z,830.00
2024-01-16T07:43:58.367Z,827.00
2024-01-16T07:44:58.359Z,822.00
2024-01-16T07:45:58.293Z,822.00
2024-01-16T07:46:58.297Z,822.00
2024-01-16T07:47:58.358Z,814.00
2024-01-16T07:48:58.320Z,808.00
2024-01-16T07:49:58.298Z,805.00
2024-01-16T07:50:58.391Z,801.00
2024-01-16T07:51:58.274Z,799.00
2024-01-16T07:52:58.306Z,799.00
2024-01-16T07:53:58.384Z,796.00
2024-01-16T07:54:58.353Z,795.00
2024-01-16T07:55:58.394Z,794.00
2024-01-16T07:56:58.652Z,794.00
2024-01-16T07:57:58.455Z,797.00
2024-01-16T07:58:58.474Z,799.00
2024-01-16T07:59:58.532Z,800.00
2024-01-16T08:00:58.584Z,798.00
2024-01-16T08:01:58.598Z,796.00
2024-01-16T08:02:58.632Z,794.00
2024-01-16T08:03:58.700Z,789.00
2024-01-16T08:04:58.713Z,790.00
2024-01-16T08:05:58.806Z,790.00
2024-01-16T08:06:58.828Z,789.00
2024-01-16T08:07:58.734Z,788.00
2024-01-16T08:08:58.836Z,788.00
2024-01-16T08:09:58.783Z,787.00
2024-01-16T08:10:58.806Z,788.00
2024-01-16T08:11:58.915Z,790.00
2024-01-16T08:12:58.851Z,790.00
2024-01-16T08:13:58.901Z,791.00
2024-01-16T08:14:58.973Z,790.00
2024-01-16T08:15:58.954Z,786.00
2024-01-16T08:16:58.933Z,783.00
2024-01-16T08:17:59.070Z,783.00
2024-01-16T08:18:58.997Z,783.00
2024-01-16T08:19:58.959Z,779.00
2024-01-16T08:20:59.002Z,780.00
2024-01-16T08:21:58.987Z,783.00
2024-01-16T08:22:58.951Z,783.00
2024-01-16T08:23:59.001Z,783.00
2024-01-16T08:24:58.967Z,782.00
2024-01-16T08:25:58.970Z,781.00
2024-01-16T08:26:59.024Z,781.00
2024-01-16T08:27:58.964Z,781.00
2024-01-16T08:28:58.965Z,780.00
2024-01-16T08:29:59.081Z,781.00
2024-01-16T08:30:59.042Z,779.00
2024-01-16T08:31:58.986Z,775.00
2024-01-16T08:32:59.028Z,774.00
2024-01-16T08:33:59.232Z,772.00
2024-01-16T08:34:59.058Z,771.00
2024-01-16T08:35:59.067Z,772.00
2024-01-16T08:36:59.019Z,775.00
2024-01-16T08:37:59.096Z,832.00
2024-01-16T08:38:59.115Z,854.00
2024-01-16T08:39:59.098Z,872.00
2024-01-16T08:40:59.064Z,890.00
2024-01-16T08:41:59.187Z,951.00
2024-01-16T08:42:59.052Z,954.00
2024-01-16T08:43:59.020Z,963.00
2024-01-16T08:44:59.085Z,979.00
2024-01-16T08:45:59.065Z,1023.00
2024-01-16T08:46:59.021Z,1029.00
2024-01-16T08:47:59.109Z,1041.00
2024-01-16T08:48:59.047Z,1056.00
2024-01-16T08:49:59.021Z,1074.00
2024-01-16T08:50:58.999Z,1107.00
2024-01-16T08:51:58.953Z,1125.00
2024-01-16T08:52:59.124Z,1138.00
2024-01-16T08:53:59.083Z,1151.00
2024-01-16T08:54:58.955Z,1188.00
2024-01-16T08:55:59.096Z,1230.00
2024-01-16T08:56:58.946Z,1227.00
2024-01-16T08:57:58.957Z,1225.00
2024-01-16T08:58:59.021Z,1228.00
2024-01-16T08:59:58.928Z,1239.00
2024-01-16T09:00:58.909Z,1269.00
2024-01-16T09:01:58.946Z,1281.00
2024-01-16T09:02:59.841Z,1296.00
2024-01-16T09:03:58.913Z,1316.00
2024-01-16T09:04:58.948Z,1360.00
2024-01-16T09:05:59.053Z,1365.00
2024-01-16T09:06:59.225Z,1379.00
2024-01-16T09:07:58.844Z,1407.00
2024-01-16T09:08:58.856Z,1421.00
2024-01-16T09:09:58.830Z,1429.00
2024-01-16T09:10:58.826Z,1440.00
2024-01-16T09:11:58.844Z,1459.00
2024-01-16T09:12:58.826Z,1465.00
2024-01-16T09:14:00.015Z,1501.00
2024-01-16T09:14:58.898Z,1511.00
2024-01-16T09:15:58.971Z,1523.00
2024-01-16T09:16:58.857Z,1537.00
2024-01-16T09:17:58.990Z,1557.00
2024-01-16T09:18:58.936Z,1567.00
2024-01-16T09:19:58.834Z,1573.00
2024-01-16T09:20:58.944Z,1597.00
2024-01-16T09:21:58.810Z,1612.00
2024-01-16T09:22:58.815Z,1633.00
2024-01-16T09:23:58.840Z,1653.00
2024-01-16T09:24:58.768Z,1669.00
2024-01-16T09:25:58.767Z,1691.00
2024-01-16T09:26:58.800Z,1709.00
2024-01-16T09:27:58.741Z,1732.00
2024-01-16T09:28:58.930Z,1741.00
2024-01-16T09:29:58.771Z,1760.00
2024-01-16T09:30:58.857Z,1841.00
2024-01-16T09:31:58.670Z,1835.00
2024-01-16T09:32:58.773Z,1816.00
2024-01-16T09:33:58.756Z,1705.00
2024-01-16T09:34:58.702Z,1734.00
2024-01-16T09:35:58.673Z,1742.00
2024-01-16T09:36:58.701Z,1744.00
2024-01-16T09:37:58.606Z,1732.00
2024-01-16T09:38:58.697Z,1681.00
2024-01-16T09:39:58.607Z,1632.00
2024-01-16T09:40:58.584Z,1600.00
2024-01-16T09:41:58.584Z,1567.00
2024-01-16T09:42:58.519Z,1563.00
2024-01-16T09:43:58.537Z,1540.00
2024-01-16T09:44:58.563Z,1528.00
2024-01-16T09:46:01.037Z,1518.00
2024-01-16T09:46:58.490Z,1270.00
2024-01-16T09:47:58.678Z,1174.00
2024-01-16T09:48:58.539Z,1145.00
2024-01-16T09:49:58.464Z,1147.00
2024-01-16T09:50:58.457Z,1185.00
2024-01-16T09:51:58.429Z,1200.00
2024-01-16T09:53:00.147Z,1215.00
2024-01-16T09:53:58.482Z,1248.00
2024-01-16T09:54:58.431Z,1265.00
2024-01-16T09:55:58.428Z,1266.00
2024-01-16T09:56:58.452Z,1267.00
2024-01-16T09:57:58.386Z,1268.00
2024-01-16T09:58:58.370Z,1271.00
2024-01-16T09:59:58.436Z,1275.00
2024-01-16T10:00:58.366Z,1278.00
2024-01-16T10:01:58.321Z,1291.00
2024-01-16T10:02:58.456Z,1305.00
2024-01-16T10:03:58.400Z,1316.00
2024-01-16T10:04:58.308Z,1318.00
2024-01-16T10:05:58.364Z,1326.00
2024-01-16T10:06:58.333Z,1334.00
2024-01-16T10:07:58.256Z,1339.00
2024-01-16T10:08:58.351Z,1342.00
2024-01-16T10:09:58.250Z,1343.00
2024-01-16T10:10:58.234Z,1346.00
2024-01-16T10:11:58.281Z,1348.00
2024-01-16T10:12:58.203Z,1349.00
2024-01-16T10:13:58.175Z,1352.00
2024-01-16T10:14:58.310Z,1352.00
2024-01-16T10:15:58.187Z,1356.00
2024-01-16T10:16:58.147Z,1363.00
2024-01-16T10:17:58.153Z,1368.00
2024-01-16T10:18:58.217Z,1368.00
2024-01-16T10:19:58.121Z,1368.00
2024-01-16T10:20:58.194Z,1375.00
2024-01-16T10:21:58.077Z,1381.00
2024-01-16T10:22:58.141Z,1383.00
2024-01-16T10:23:58.118Z,1387.00
2024-01-16T10:24:58.103Z,1399.00
2024-01-16T10:25:58.121Z,1398.00
2024-01-16T10:26:58.284Z,1400.00
2024-01-16T10:27:58.170Z,1401.00
2024-01-16T10:28:58.136Z,1390.00
2024-01-16T10:29:58.479Z,1373.00
2024-01-16T10:30:58.214Z,1374.00
2024-01-16T10:31:58.155Z,1378.00
2024-01-16T10:32:58.244Z,1386.00
2024-01-16T10:33:58.200Z,1386.00
2024-01-16T10:34:58.384Z,1382.00
2024-01-16T10:35:58.107Z,1372.00
2024-01-16T10:36:58.059Z,1368.00
2024-01-16T10:37:57.976Z,1369.00
2024-01-16T10:38:57.985Z,1369.00
2024-01-16T10:39:57.960Z,1371.00
2024-01-16T10:40:57.906Z,1388.00
2024-01-16T10:41:57.896Z,1392.00
2024-01-16T10:42:57.900Z,1361.00
2024-01-16T10:43:57.866Z,1251.00
2024-01-16T10:44:57.878Z,1177.00
2024-01-16T10:45:57.929Z,1133.00
2024-01-16T10:46:57.823Z,1198.00
2024-01-16T10:47:57.899Z,1212.00
2024-01-16T10:48:57.834Z,1219.00
2024-01-16T10:49:57.813Z,1224.00
2024-01-16T10:50:57.845Z,1085.00
2024-01-16T10:51:57.781Z,1016.00
2024-01-16T10:52:57.782Z,1074.00
2024-01-16T10:53:57.774Z,1034.00
2024-01-16T10:54:57.759Z,986.00
2024-01-16T10:55:58.764Z,989.00
2024-01-16T10:56:57.770Z,981.00
2024-01-16T10:57:57.757Z,993.00
2024-01-16T10:58:57.800Z,979.00
2024-01-16T10:59:57.835Z,964.00
2024-01-16T11:00:57.783Z,956.00
2024-01-16T11:01:57.686Z,939.00
2024-01-16T11:02:57.727Z,893.00
2024-01-16T11:03:57.751Z,876.00
2024-01-16T11:04:57.688Z,847.00
2024-01-16T11:05:57.738Z,847.00
2024-01-16T11:06:57.749Z,844.00
2024-01-16T11:07:57.752Z,838.00
2024-01-16T11:08:57.830Z,828.00
2024-01-16T11:09:57.773Z,822.00
2024-01-16T11:10:57.726Z,821.00
2024-01-16T11:11:57.796Z,813.00
2024-01-16T11:12:57.699Z,796.00
2024-01-16T11:13:57.701Z,774.00
2024-01-16T11:14:57.691Z,774.00
2024-01-16T11:15:57.666Z,775.00
2024-01-16T11:16:57.725Z,775.00
2024-01-16T11:17:57.715Z,769.00
2024-01-16T11:19:13.487Z,767.00
2024-01-16T11:20:10.453Z,766.00
2024-01-16T11:21:05.890Z,767.00
2024-01-16T11:21:58.677Z,766.00
2024-01-16T11:22:57.573Z,764.00
2024-01-16T11:23:57.603Z,760.00
2024-01-16T11:24:57.567Z,755.00
2024-01-16T11:25:57.523Z,750.00
2024-01-16T11:26:57.580Z,750.00
2024-01-16T11:27:57.506Z,750.00
2024-01-16T11:28:57.772Z,746.00
2024-01-16T11:29:57.578Z,741.00
2024-01-16T11:30:57.526Z,737.00
2024-01-16T11:32:11.996Z,726.00
2024-01-16T11:32:58.496Z,718.00
2024-01-16T11:33:57.573Z,712.00
2024-01-16T11:34:57.570Z,702.00
2024-01-16T11:35:57.475Z,699.00
2024-01-16T11:36:57.740Z,694.00
2024-01-16T11:37:57.409Z,688.00
2024-01-16T11:38:57.496Z,696.00
2024-01-16T11:39:57.497Z,710.00
2024-01-16T11:40:57.369Z,727.00
2024-01-16T11:41:57.561Z,770.00
2024-01-16T11:42:57.448Z,820.00
2024-01-16T11:43:57.335Z,860.00
2024-01-16T11:44:57.351Z,866.00
2024-01-16T11:45:57.305Z,871.00
2024-01-16T11:46:57.276Z,896.00
2024-01-16T11:47:57.342Z,906.00
2024-01-16T11:48:57.335Z,924.00
2024-01-16T11:49:57.251Z,941.00
2024-01-16T11:50:57.271Z,981.00
2024-01-16T11:51:57.230Z,991.00
2024-01-16T11:52:57.210Z,993.00
2024-01-16T11:53:57.286Z,1008.00
2024-01-16T11:54:57.212Z,1023.00
2024-01-16T11:55:57.229Z,1039.00
2024-01-16T11:56:57.203Z,1052.00
2024-01-16T11:57:57.151Z,1065.00
2024-01-16T11:58:57.154Z,1076.00
2024-01-16T11:59:57.176Z,1094.00
2024-01-16T12:00:57.158Z,1106.00
2024-01-16T12:01:57.117Z,1117.00
2024-01-16T12:02:57.082Z,1122.00
2024-01-16T12:03:57.037Z,1129.00
2024-01-16T12:04:57.035Z,1132.00
2024-01-16T12:05:57.133Z,1175.00
2024-01-16T12:06:57.206Z,1201.00
2024-01-16T12:07:57.032Z,1199.00
2024-01-16T12:08:57.084Z,1204.00
2024-01-16T12:09:56.943Z,1216.00
2024-01-16T12:10:56.900Z,1223.00
2024-01-16T12:11:56.944Z,1239.00
2024-01-16T12:12:57.042Z,1265.00
2024-01-16T12:13:56.872Z,1289.00
2024-01-16T12:14:57.025Z,1306.00
2024-01-16T12:15:56.875Z,1309.00
2024-01-16T12:16:56.835Z,1320.00
2024-01-16T12:17:57.008Z,1324.00
2024-01-16T12:18:56.901Z,1332.00
2024-01-16T12:19:56.868Z,1365.00
2024-01-16T12:20:56.760Z,1378.00
2024-01-16T12:21:56.757Z,1385.00
2024-01-16T12:22:56.796Z,1394.00
2024-01-16T12:24:08.158Z,1406.00